sensor_id;sensor_type;location;lat;lon;timestamp;P1;durP1;ratioP1;P2;durP2;ratioP2
57441;SDS011;43284;47.042;15.498;2023-12-20T00:01:37;7.45;;;3.72;;
57441;SDS011;43284;47.042;15.498;2023-12-20T00:04:06;9.60;;;3.53;;
57441;SDS011;43284;47.042;15.498;2023-12-20T00:06:31;13.75;;;4.15;;
57441;SDS011;43284;47.042;15.498;2023-12-20T00:08:57;7.78;;;3.05;;
57441;SDS011;43284;47.042;15.498;2023-12-20T00:11:23;9.00;;;3.83;;
57441;SDS011;43284;47.042;15.498;2023-12-20T00:13:49;10.90;;;3.70;;
57441;SDS011;43284;47.042;15.498;2023-12-20T00:16:15;9.50;;;4.10;;
57441;SDS011;43284;47.042;15.498;2023-12-20T00:18:40;8.38;;;3.35;;
57441;SDS011;43284;47.042;15.498;2023-12-20T00:21:06;8.02;;;3.25;;
57441;SDS011;43284;47.042;15.498;2023-12-20T00:23:31;6.85;;;3.65;;
57441;SDS011;43284;47.042;15.498;2023-12-20T00:25:57;8.82;;;3.45;;
57441;SDS011;43284;47.042;15.498;2023-12-20T00:28:22;10.38;;;3.42;;
57441;SDS011;43284;47.042;15.498;2023-12-20T00:30:48;7.53;;;3.42;;
57441;SDS011;43284;47.042;15.498;2023-12-20T00:33:14;10.75;;;3.70;;
57441;SDS011;43284;47.042;15.498;2023-12-20T00:35:39;12.02;;;3.35;;
57441;SDS011;43284;47.042;15.498;2023-12-20T00:38:05;9.68;;;3.65;;
57441;SDS011;43284;47.042;15.498;2023-12-20T00:40:32;7.38;;;3.20;;
57441;SDS011;43284;47.042;15.498;2023-12-20T00:42:58;9.23;;;3.88;;
57441;SDS011;43284;47.042;15.498;2023-12-20T00:45:23;9.38;;;3.33;;
57441;SDS011;43284;47.042;15.498;2023-12-20T00:47:49;7.30;;;3.42;;
57441;SDS011;43284;47.042;15.498;2023-12-20T00:50:15;10.90;;;4.32;;
57441;SDS011;43284;47.042;15.498;2023-12-20T00:52:40;9.20;;;3.83;;
57441;SDS011;43284;47.042;15.498;2023-12-20T00:55:06;10.73;;;3.72;;
57441;SDS011;43284;47.042;15.498;2023-12-20T00:57:32;6.47;;;3.47;;
57441;SDS011;43284;47.042;15.498;2023-12-20T00:59:57;8.73;;;3.30;;
57441;SDS011;43284;47.042;15.498;2023-12-20T01:02:23;7.63;;;3.58;;
57441;SDS011;43284;47.042;15.498;2023-12-20T01:04:48;8.48;;;3.53;;
57441;SDS011;43284;47.042;15.498;2023-12-20T01:07:14;10.73;;;3.58;;
57441;SDS011;43284;47.042;15.498;2023-12-20T01:09:39;9.82;;;3.80;;
57441;SDS011;43284;47.042;15.498;2023-12-20T01:12:05;9.55;;;2.97;;
57441;SDS011;43284;47.042;15.498;2023-12-20T01:14:31;8.77;;;3.85;;
57441;SDS011;43284;47.042;15.498;2023-12-20T01:16:56;8.15;;;2.85;;
57441;SDS011;43284;47.042;15.498;2023-12-20T01:19:22;7.57;;;3.22;;
57441;SDS011;43284;47.042;15.498;2023-12-20T01:21:49;11.48;;;3.38;;
57441;SDS011;43284;47.042;15.498;2023-12-20T01:24:15;7.18;;;2.95;;
57441;SDS011;43284;47.042;15.498;2023-12-20T01:26:41;13.45;;;3.15;;
57441;SDS011;43284;47.042;15.498;2023-12-20T01:29:10;7.78;;;2.85;;
57441;SDS011;43284;47.042;15.498;2023-12-20T01:31:36;7.93;;;2.88;;
57441;SDS011;43284;47.042;15.498;2023-12-20T01:34:01;7.97;;;3.38;;
57441;SDS011;43284;47.042;15.498;2023-12-20T01:36:27;7.88;;;3.28;;
57441;SDS011;43284;47.042;15.498;2023-12-20T01:38:53;13.02;;;3.67;;
57441;SDS011;43284;47.042;15.498;2023-12-20T01:41:18;12.23;;;4.20;;
57441;SDS011;43284;47.042;15.498;2023-12-20T01:43:44;6.18;;;3.05;;
57441;SDS011;43284;47.042;15.498;2023-12-20T01:46:09;7.47;;;3.05;;
57441;SDS011;43284;47.042;15.498;2023-12-20T01:48:37;5.45;;;2.60;;
57441;SDS011;43284;47.042;15.498;2023-12-20T01:51:04;7.97;;;3.25;;
57441;SDS011;43284;47.042;15.498;2023-12-20T01:53:29;9.70;;;3.60;;
57441;SDS011;43284;47.042;15.498;2023-12-20T01:55:56;6.28;;;3.10;;
57441;SDS011;43284;47.042;15.498;2023-12-20T01:58:23;9.75;;;3.83;;
57441;SDS011;43284;47.042;15.498;2023-12-20T02:00:51;6.32;;;2.88;;
57441;SDS011;43284;47.042;15.498;2023-12-20T02:03:16;8.95;;;3.55;;
57441;SDS011;43284;47.042;15.498;2023-12-20T02:05:43;12.23;;;3.65;;
57441;SDS011;43284;47.042;15.498;2023-12-20T02:08:09;9.18;;;3.65;;
57441;SDS011;43284;47.042;15.498;2023-12-20T02:10:35;9.23;;;3.80;;
57441;SDS011;43284;47.042;15.498;2023-12-20T02:13:00;8.10;;;3.10;;
57441;SDS011;43284;47.042;15.498;2023-12-20T02:15:26;6.53;;;2.72;;
57441;SDS011;43284;47.042;15.498;2023-12-20T02:17:57;6.07;;;2.80;;
57441;SDS011;43284;47.042;15.498;2023-12-20T02:20:23;8.38;;;3.00;;
57441;SDS011;43284;47.042;15.498;2023-12-20T02:22:55;9.15;;;3.30;;
57441;SDS011;43284;47.042;15.498;2023-12-20T02:25:21;8.90;;;3.03;;
57441;SDS011;43284;47.042;15.498;2023-12-20T02:27:46;8.80;;;4.05;;
57441;SDS011;43284;47.042;15.498;2023-12-20T02:30:13;7.80;;;3.17;;
57441;SDS011;43284;47.042;15.498;2023-12-20T02:32:39;10.35;;;3.58;;
57441;SDS011;43284;47.042;15.498;2023-12-20T02:35:05;6.75;;;2.85;;
57441;SDS011;43284;47.042;15.498;2023-12-20T02:37:31;12.18;;;3.30;;
57441;SDS011;43284;47.042;15.498;2023-12-20T02:39:58;6.20;;;3.50;;
57441;SDS011;43284;47.042;15.498;2023-12-20T02:42:23;8.75;;;3.28;;
57441;SDS011;43284;47.042;15.498;2023-12-20T02:44:49;10.40;;;3.83;;
57441;SDS011;43284;47.042;15.498;2023-12-20T02:47:14;5.53;;;3.20;;
57441;SDS011;43284;47.042;15.498;2023-12-20T02:49:40;7.65;;;3.47;;
57441;SDS011;43284;47.042;15.498;2023-12-20T02:52:05;8.38;;;3.20;;
57441;SDS011;43284;47.042;15.498;2023-12-20T02:54:31;6.32;;;3.45;;
57441;SDS011;43284;47.042;15.498;2023-12-20T02:56:56;6.65;;;2.38;;
57441;SDS011;43284;47.042;15.498;2023-12-20T02:59:22;5.30;;;2.65;;
57441;SDS011;43284;47.042;15.498;2023-12-20T03:01:47;5.38;;;2.65;;
57441;SDS011;43284;47.042;15.498;2023-12-20T03:04:13;6.55;;;3.15;;
57441;SDS011;43284;47.042;15.498;2023-12-20T03:06:38;6.65;;;2.55;;
57441;SDS011;43284;47.042;15.498;2023-12-20T03:09:04;6.20;;;3.08;;
57441;SDS011;43284;47.042;15.498;2023-12-20T03:11:30;7.90;;;2.70;;
57441;SDS011;43284;47.042;15.498;2023-12-20T03:13:59;4.15;;;2.40;;
57441;SDS011;43284;47.042;15.498;2023-12-20T03:16:24;8.65;;;2.88;;
57441;SDS011;43284;47.042;15.498;2023-12-20T03:18:53;5.15;;;2.40;;
57441;SDS011;43284;47.042;15.498;2023-12-20T03:21:18;7.72;;;2.60;;
57441;SDS011;43284;47.042;15.498;2023-12-20T03:23:45;8.48;;;2.83;;
57441;SDS011;43284;47.042;15.498;2023-12-20T03:26:10;4.07;;;2.10;;
57441;SDS011;43284;47.042;15.498;2023-12-20T03:28:36;8.30;;;3.00;;
57441;SDS011;43284;47.042;15.498;2023-12-20T03:31:02;8.27;;;3.45;;
57441;SDS011;43284;47.042;15.498;2023-12-20T03:33:40;8.30;;;2.65;;
57441;SDS011;43284;47.042;15.498;2023-12-20T03:36:06;4.53;;;2.42;;
57441;SDS011;43284;47.042;15.498;2023-12-20T03:38:31;7.40;;;2.42;;
57441;SDS011;43284;47.042;15.498;2023-12-20T03:40:57;4.40;;;2.38;;
57441;SDS011;43284;47.042;15.498;2023-12-20T03:43:22;11.05;;;2.90;;
57441;SDS011;43284;47.042;15.498;2023-12-20T03:45:48;4.80;;;2.33;;
57441;SDS011;43284;47.042;15.498;2023-12-20T03:48:14;6.60;;;3.08;;
57441;SDS011;43284;47.042;15.498;2023-12-20T03:50:39;7.70;;;2.67;;
57441;SDS011;43284;47.042;15.498;2023-12-20T03:53:05;6.43;;;3.17;;
57441;SDS011;43284;47.042;15.498;2023-12-20T03:55:30;7.43;;;2.97;;
57441;SDS011;43284;47.042;15.498;2023-12-20T03:57:56;5.03;;;2.55;;
57441;SDS011;43284;47.042;15.498;2023-12-20T04:00:24;4.65;;;2.55;;
57441;SDS011;43284;47.042;15.498;2023-12-20T04:02:57;5.70;;;2.50;;
57441;SDS011;43284;47.042;15.498;2023-12-20T04:05:23;8.00;;;2.80;;
57441;SDS011;43284;47.042;15.498;2023-12-20T04:07:51;8.27;;;3.05;;
57441;SDS011;43284;47.042;15.498;2023-12-20T04:10:17;7.57;;;2.75;;
57441;SDS011;43284;47.042;15.498;2023-12-20T04:12:42;12.68;;;3.10;;
57441;SDS011;43284;47.042;15.498;2023-12-20T04:15:08;4.00;;;2.85;;
57441;SDS011;43284;47.042;15.498;2023-12-20T04:17:37;11.10;;;3.10;;
57441;SDS011;43284;47.042;15.498;2023-12-20T04:20:02;5.70;;;2.55;;
57441;SDS011;43284;47.042;15.498;2023-12-20T04:22:28;3.60;;;2.15;;
57441;SDS011;43284;47.042;15.498;2023-12-20T04:24:54;8.27;;;2.20;;
57441;SDS011;43284;47.042;15.498;2023-12-20T04:27:22;7.45;;;2.08;;
57441;SDS011;43284;47.042;15.498;2023-12-20T04:29:48;7.18;;;2.47;;
57441;SDS011;43284;47.042;15.498;2023-12-20T04:32:13;6.68;;;2.72;;
57441;SDS011;43284;47.042;15.498;2023-12-20T04:34:39;5.97;;;2.65;;
57441;SDS011;43284;47.042;15.498;2023-12-20T04:37:05;4.93;;;2.25;;
57441;SDS011;43284;47.042;15.498;2023-12-20T04:39:30;5.53;;;2.55;;
57441;SDS011;43284;47.042;15.498;2023-12-20T04:41:56;5.38;;;2.30;;
57441;SDS011;43284;47.042;15.498;2023-12-20T04:44:21;6.28;;;2.33;;
57441;SDS011;43284;47.042;15.498;2023-12-20T04:46:47;6.65;;;2.45;;
57441;SDS011;43284;47.042;15.498;2023-12-20T04:49:12;6.07;;;2.35;;
57441;SDS011;43284;47.042;15.498;2023-12-20T04:51:38;4.10;;;2.08;;
57441;SDS011;43284;47.042;15.498;2023-12-20T04:54:06;7.15;;;2.75;;
57441;SDS011;43284;47.042;15.498;2023-12-20T04:56:31;4.63;;;2.53;;
57441;SDS011;43284;47.042;15.498;2023-12-20T04:58:59;6.63;;;2.92;;
57441;SDS011;43284;47.042;15.498;2023-12-20T05:01:24;8.88;;;2.95;;
57441;SDS011;43284;47.042;15.498;2023-12-20T05:03:50;9.07;;;3.40;;
57441;SDS011;43284;47.042;15.498;2023-12-20T05:06:18;6.10;;;2.75;;
57441;SDS011;43284;47.042;15.498;2023-12-20T05:08:44;5.38;;;2.33;;
57441;SDS011;43284;47.042;15.498;2023-12-20T05:11:15;6.57;;;2.95;;
57441;SDS011;43284;47.042;15.498;2023-12-20T05:13:41;9.73;;;2.97;;
57441;SDS011;43284;47.042;15.498;2023-12-20T05:16:09;8.18;;;3.03;;
57441;SDS011;43284;47.042;15.498;2023-12-20T05:18:35;6.80;;;2.90;;
57441;SDS011;43284;47.042;15.498;2023-12-20T05:21:06;8.45;;;2.67;;
57441;SDS011;43284;47.042;15.498;2023-12-20T05:23:32;5.13;;;2.55;;
57441;SDS011;43284;47.042;15.498;2023-12-20T05:25:57;10.88;;;3.53;;
57441;SDS011;43284;47.042;15.498;2023-12-20T05:28:24;7.03;;;2.67;;
57441;SDS011;43284;47.042;15.498;2023-12-20T05:30:49;9.32;;;3.05;;
57441;SDS011;43284;47.042;15.498;2023-12-20T05:33:15;8.75;;;2.97;;
57441;SDS011;43284;47.042;15.498;2023-12-20T05:35:40;7.85;;;2.78;;
57441;SDS011;43284;47.042;15.498;2023-12-20T05:38:06;6.35;;;2.92;;
57441;SDS011;43284;47.042;15.498;2023-12-20T05:40:31;5.88;;;2.38;;
57441;SDS011;43284;47.042;15.498;2023-12-20T05:42:57;9.30;;;3.42;;
57441;SDS011;43284;47.042;15.498;2023-12-20T05:45:22;7.10;;;3.50;;
57441;SDS011;43284;47.042;15.498;2023-12-20T05:47:48;5.10;;;2.72;;
57441;SDS011;43284;47.042;15.498;2023-12-20T05:50:14;9.25;;;3.33;;
57441;SDS011;43284;47.042;15.498;2023-12-20T05:52:40;6.80;;;2.92;;
57441;SDS011;43284;47.042;15.498;2023-12-20T05:55:06;10.68;;;5.15;;
57441;SDS011;43284;47.042;15.498;2023-12-20T05:57:32;9.00;;;3.30;;
57441;SDS011;43284;47.042;15.498;2023-12-20T05:59:57;7.00;;;2.53;;
57441;SDS011;43284;47.042;15.498;2023-12-20T06:02:23;6.75;;;2.67;;
57441;SDS011;43284;47.042;15.498;2023-12-20T06:04:48;6.25;;;3.10;;
57441;SDS011;43284;47.042;15.498;2023-12-20T06:07:14;6.25;;;2.30;;
57441;SDS011;43284;47.042;15.498;2023-12-20T06:09:40;5.63;;;2.70;;
57441;SDS011;43284;47.042;15.498;2023-12-20T06:12:09;9.50;;;2.88;;
57441;SDS011;43284;47.042;15.498;2023-12-20T06:14:35;3.75;;;2.15;;
57441;SDS011;43284;47.042;15.498;2023-12-20T06:17:00;7.97;;;3.95;;
57441;SDS011;43284;47.042;15.498;2023-12-20T06:19:29;13.48;;;4.53;;
57441;SDS011;43284;47.042;15.498;2023-12-20T06:21:57;9.48;;;3.97;;
57441;SDS011;43284;47.042;15.498;2023-12-20T06:24:23;7.20;;;3.28;;
57441;SDS011;43284;47.042;15.498;2023-12-20T06:26:52;9.90;;;3.13;;
57441;SDS011;43284;47.042;15.498;2023-12-20T06:29:18;12.55;;;4.20;;
57441;SDS011;43284;47.042;15.498;2023-12-20T06:31:46;7.80;;;2.78;;
57441;SDS011;43284;47.042;15.498;2023-12-20T06:34:12;7.88;;;3.13;;
57441;SDS011;43284;47.042;15.498;2023-12-20T06:36:37;5.50;;;2.72;;
57441;SDS011;43284;47.042;15.498;2023-12-20T06:39:03;8.27;;;2.85;;
57441;SDS011;43284;47.042;15.498;2023-12-20T06:41:29;6.93;;;3.05;;
57441;SDS011;43284;47.042;15.498;2023-12-20T06:43:55;10.27;;;3.42;;
57441;SDS011;43284;47.042;15.498;2023-12-20T06:46:20;10.20;;;3.28;;
57441;SDS011;43284;47.042;15.498;2023-12-20T06:48:46;8.88;;;3.45;;
57441;SDS011;43284;47.042;15.498;2023-12-20T06:51:15;7.35;;;2.75;;
57441;SDS011;43284;47.042;15.498;2023-12-20T06:53:42;9.85;;;2.60;;
57441;SDS011;43284;47.042;15.498;2023-12-20T06:56:08;12.18;;;3.50;;
57441;SDS011;43284;47.042;15.498;2023-12-20T06:58:35;7.28;;;2.13;;
57441;SDS011;43284;47.042;15.498;2023-12-20T07:01:02;9.55;;;2.83;;
57441;SDS011;43284;47.042;15.498;2023-12-20T07:03:29;6.90;;;2.72;;
57441;SDS011;43284;47.042;15.498;2023-12-20T07:05:55;6.60;;;2.53;;
57441;SDS011;43284;47.042;15.498;2023-12-20T07:08:20;6.00;;;2.28;;
57441;SDS011;43284;47.042;15.498;2023-12-20T07:10:46;3.70;;;2.20;;
57441;SDS011;43284;47.042;15.498;2023-12-20T07:13:13;6.10;;;2.28;;
57441;SDS011;43284;47.042;15.498;2023-12-20T07:15:39;7.28;;;2.70;;
57441;SDS011;43284;47.042;15.498;2023-12-20T07:18:04;6.05;;;2.75;;
57441;SDS011;43284;47.042;15.498;2023-12-20T07:20:31;10.80;;;3.30;;
57441;SDS011;43284;47.042;15.498;2023-12-20T07:22:57;7.10;;;2.83;;
57441;SDS011;43284;47.042;15.498;2023-12-20T07:25:22;6.47;;;3.20;;
57441;SDS011;43284;47.042;15.498;2023-12-20T07:27:48;15.23;;;3.83;;
57441;SDS011;43284;47.042;15.498;2023-12-20T07:30:14;9.85;;;3.85;;
57441;SDS011;43284;47.042;15.498;2023-12-20T07:32:40;10.77;;;4.18;;
57441;SDS011;43284;47.042;15.498;2023-12-20T07:35:06;10.70;;;4.13;;
57441;SDS011;43284;47.042;15.498;2023-12-20T07:37:32;9.05;;;3.95;;
57441;SDS011;43284;47.042;15.498;2023-12-20T07:39:58;6.43;;;3.05;;
57441;SDS011;43284;47.042;15.498;2023-12-20T07:42:25;7.47;;;3.08;;
57441;SDS011;43284;47.042;15.498;2023-12-20T07:44:54;7.35;;;3.50;;
57441;SDS011;43284;47.042;15.498;2023-12-20T07:47:23;12.50;;;4.68;;
57441;SDS011;43284;47.042;15.498;2023-12-20T07:49:51;10.65;;;4.35;;
57441;SDS011;43284;47.042;15.498;2023-12-20T07:52:17;9.05;;;4.00;;
57441;SDS011;43284;47.042;15.498;2023-12-20T07:54:44;11.30;;;3.90;;
57441;SDS011;43284;47.042;15.498;2023-12-20T07:57:11;8.05;;;4.05;;
57441;SDS011;43284;47.042;15.498;2023-12-20T07:59:37;10.30;;;3.65;;
57441;SDS011;43284;47.042;15.498;2023-12-20T08:02:04;13.23;;;3.80;;
57441;SDS011;43284;47.042;15.498;2023-12-20T08:04:30;9.90;;;4.72;;
57441;SDS011;43284;47.042;15.498;2023-12-20T08:06:56;8.68;;;3.95;;
57441;SDS011;43284;47.042;15.498;2023-12-20T08:09:22;9.23;;;3.80;;
57441;SDS011;43284;47.042;15.498;2023-12-20T08:11:49;13.90;;;4.53;;
57441;SDS011;43284;47.042;15.498;2023-12-20T08:14:16;14.73;;;5.25;;
57441;SDS011;43284;47.042;15.498;2023-12-20T08:16:41;12.98;;;5.35;;
57441;SDS011;43284;47.042;15.498;2023-12-20T08:19:07;9.05;;;4.60;;
57441;SDS011;43284;47.042;15.498;2023-12-20T08:21:33;16.50;;;5.93;;
57441;SDS011;43284;47.042;15.498;2023-12-20T08:24:02;13.82;;;6.32;;
57441;SDS011;43284;47.042;15.498;2023-12-20T08:26:27;21.00;;;8.27;;
57441;SDS011;43284;47.042;15.498;2023-12-20T08:28:53;16.80;;;8.80;;
57441;SDS011;43284;47.042;15.498;2023-12-20T08:31:19;13.45;;;7.03;;
57441;SDS011;43284;47.042;15.498;2023-12-20T08:33:46;16.40;;;7.15;;
57441;SDS011;43284;47.042;15.498;2023-12-20T08:36:13;18.45;;;7.32;;
57441;SDS011;43284;47.042;15.498;2023-12-20T08:38:39;15.98;;;7.43;;
57441;SDS011;43284;47.042;15.498;2023-12-20T08:41:05;19.85;;;8.65;;
57441;SDS011;43284;47.042;15.498;2023-12-20T08:43:31;19.90;;;7.47;;
57441;SDS011;43284;47.042;15.498;2023-12-20T08:45:57;22.80;;;7.32;;
57441;SDS011;43284;47.042;15.498;2023-12-20T08:48:23;17.02;;;7.25;;
57441;SDS011;43284;47.042;15.498;2023-12-20T08:50:48;21.27;;;7.82;;
57441;SDS011;43284;47.042;15.498;2023-12-20T08:53:15;20.48;;;7.78;;
57441;SDS011;43284;47.042;15.498;2023-12-20T08:55:44;15.05;;;7.60;;
57441;SDS011;43284;47.042;15.498;2023-12-20T08:58:10;12.90;;;7.03;;
57441;SDS011;43284;47.042;15.498;2023-12-20T09:00:36;15.70;;;6.68;;
57441;SDS011;43284;47.042;15.498;2023-12-20T09:03:02;18.30;;;7.05;;
57441;SDS011;43284;47.042;15.498;2023-12-20T09:05:28;16.85;;;6.75;;
57441;SDS011;43284;47.042;15.498;2023-12-20T09:07:53;16.50;;;6.55;;
57441;SDS011;43284;47.042;15.498;2023-12-20T09:10:19;13.32;;;6.32;;
57441;SDS011;43284;47.042;15.498;2023-12-20T09:12:50;14.45;;;6.28;;
57441;SDS011;43284;47.042;15.498;2023-12-20T09:15:21;16.65;;;7.35;;
57441;SDS011;43284;47.042;15.498;2023-12-20T09:17:48;18.83;;;7.10;;
57441;SDS011;43284;47.042;15.498;2023-12-20T09:20:13;15.13;;;5.75;;
57441;SDS011;43284;47.042;15.498;2023-12-20T09:22:39;16.00;;;6.88;;
57441;SDS011;43284;47.042;15.498;2023-12-20T09:25:05;18.92;;;6.80;;
57441;SDS011;43284;47.042;15.498;2023-12-20T09:27:31;16.95;;;6.82;;
57441;SDS011;43284;47.042;15.498;2023-12-20T09:29:56;18.33;;;6.65;;
57441;SDS011;43284;47.042;15.498;2023-12-20T09:32:21;14.65;;;6.68;;
57441;SDS011;43284;47.042;15.498;2023-12-20T09:34:47;15.73;;;7.53;;
57441;SDS011;43284;47.042;15.498;2023-12-20T09:37:13;15.80;;;6.22;;
57441;SDS011;43284;47.042;15.498;2023-12-20T09:39:39;13.60;;;6.70;;
57441;SDS011;43284;47.042;15.498;2023-12-20T09:42:04;17.73;;;7.13;;
57441;SDS011;43284;47.042;15.498;2023-12-20T09:44:31;18.02;;;6.63;;
57441;SDS011;43284;47.042;15.498;2023-12-20T09:47:01;15.98;;;5.88;;
57441;SDS011;43284;47.042;15.498;2023-12-20T09:49:29;19.73;;;6.35;;
57441;SDS011;43284;47.042;15.498;2023-12-20T09:51:56;14.98;;;5.97;;
57441;SDS011;43284;47.042;15.498;2023-12-20T09:54:22;13.68;;;6.15;;
57441;SDS011;43284;47.042;15.498;2023-12-20T09:56:48;11.30;;;5.72;;
57441;SDS011;43284;47.042;15.498;2023-12-20T09:59:14;10.00;;;5.05;;
57441;SDS011;43284;47.042;15.498;2023-12-20T10:01:40;14.77;;;5.38;;
57441;SDS011;43284;47.042;15.498;2023-12-20T10:04:07;16.30;;;5.93;;
57441;SDS011;43284;47.042;15.498;2023-12-20T10:06:37;14.40;;;5.70;;
57441;SDS011;43284;47.042;15.498;2023-12-20T10:09:06;10.27;;;4.88;;
57441;SDS011;43284;47.042;15.498;2023-12-20T10:11:31;15.23;;;4.72;;
57441;SDS011;43284;47.042;15.498;2023-12-20T10:14:00;14.45;;;5.03;;
57441;SDS011;43284;47.042;15.498;2023-12-20T10:16:26;13.18;;;5.13;;
57441;SDS011;43284;47.042;15.498;2023-12-20T10:18:53;13.40;;;5.45;;
57441;SDS011;43284;47.042;15.498;2023-12-20T10:21:19;11.13;;;4.88;;
57441;SDS011;43284;47.042;15.498;2023-12-20T10:23:45;13.20;;;4.97;;
57441;SDS011;43284;47.042;15.498;2023-12-20T10:26:18;12.30;;;5.15;;
57441;SDS011;43284;47.042;15.498;2023-12-20T10:28:46;15.60;;;5.18;;
57441;SDS011;43284;47.042;15.498;2023-12-20T10:31:36;12.60;;;5.07;;
57441;SDS011;43284;47.042;15.498;2023-12-20T10:34:01;11.05;;;5.13;;
57441;SDS011;43284;47.042;15.498;2023-12-20T10:36:31;14.57;;;5.93;;
57441;SDS011;43284;47.042;15.498;2023-12-20T10:38:58;14.88;;;4.72;;
57441;SDS011;43284;47.042;15.498;2023-12-20T10:41:32;12.48;;;4.97;;
57441;SDS011;43284;47.042;15.498;2023-12-20T10:43:59;16.83;;;5.80;;
57441;SDS011;43284;47.042;15.498;2023-12-20T10:46:41;11.85;;;5.07;;
57441;SDS011;43284;47.042;15.498;2023-12-20T10:49:12;15.68;;;6.53;;
57441;SDS011;43284;47.042;15.498;2023-12-20T10:51:39;19.65;;;6.50;;
57441;SDS011;43284;47.042;15.498;2023-12-20T10:57:05;15.80;;;6.88;;
57441;SDS011;43284;47.042;15.498;2023-12-20T11:02:40;12.93;;;6.10;;
57441;SDS011;43284;47.042;15.498;2023-12-20T11:05:13;15.77;;;5.75;;
57441;SDS011;43284;47.042;15.498;2023-12-20T11:07:47;13.00;;;5.57;;
57441;SDS011;43284;47.042;15.498;2023-12-20T11:10:42;14.23;;;5.75;;
57441;SDS011;43284;47.042;15.498;2023-12-20T11:16:01;12.63;;;5.80;;
57441;SDS011;43284;47.042;15.498;2023-12-20T11:18:46;19.02;;;5.50;;
57441;SDS011;43284;47.042;15.498;2023-12-20T11:21:12;18.92;;;6.00;;
57441;SDS011;43284;47.042;15.498;2023-12-20T11:23:39;14.45;;;5.95;;
57441;SDS011;43284;47.042;15.498;2023-12-20T11:26:11;15.75;;;5.78;;
57441;SDS011;43284;47.042;15.498;2023-12-20T11:28:41;14.07;;;5.85;;
57441;SDS011;43284;47.042;15.498;2023-12-20T11:31:07;12.57;;;5.43;;
57441;SDS011;43284;47.042;15.498;2023-12-20T11:33:36;16.90;;;6.43;;
57441;SDS011;43284;47.042;15.498;2023-12-20T11:36:02;14.05;;;6.22;;
57441;SDS011;43284;47.042;15.498;2023-12-20T11:38:37;14.73;;;5.45;;
57441;SDS011;43284;47.042;15.498;2023-12-20T11:41:05;17.60;;;5.30;;
57441;SDS011;43284;47.042;15.498;2023-12-20T11:43:38;7.47;;;3.95;;
57441;SDS011;43284;47.042;15.498;2023-12-20T11:46:05;11.18;;;4.85;;
57441;SDS011;43284;47.042;15.498;2023-12-20T11:48:31;9.75;;;4.75;;
57441;SDS011;43284;47.042;15.498;2023-12-20T11:50:58;13.77;;;5.20;;
57441;SDS011;43284;47.042;15.498;2023-12-20T11:53:24;11.57;;;4.47;;
57441;SDS011;43284;47.042;15.498;2023-12-20T11:55:50;16.00;;;5.25;;
57441;SDS011;43284;47.042;15.498;2023-12-20T11:58:15;14.10;;;5.40;;
57441;SDS011;43284;47.042;15.498;2023-12-20T12:00:41;13.82;;;4.68;;
57441;SDS011;43284;47.042;15.498;2023-12-20T12:03:08;14.55;;;6.05;;
57441;SDS011;43284;47.042;15.498;2023-12-20T12:05:34;9.75;;;5.30;;
57441;SDS011;43284;47.042;15.498;2023-12-20T12:08:01;10.90;;;5.20;;
57441;SDS011;43284;47.042;15.498;2023-12-20T12:10:27;13.48;;;5.40;;
57441;SDS011;43284;47.042;15.498;2023-12-20T12:12:53;16.65;;;5.18;;
57441;SDS011;43284;47.042;15.498;2023-12-20T12:15:19;11.85;;;4.72;;
57441;SDS011;43284;47.042;15.498;2023-12-20T12:17:52;16.65;;;4.78;;
57441;SDS011;43284;47.042;15.498;2023-12-20T12:20:19;10.63;;;4.85;;
57441;SDS011;43284;47.042;15.498;2023-12-20T12:22:45;19.85;;;5.88;;
57441;SDS011;43284;47.042;15.498;2023-12-20T12:25:13;12.13;;;4.90;;
57441;SDS011;43284;47.042;15.498;2023-12-20T12:27:39;10.82;;;4.15;;
57441;SDS011;43284;47.042;15.498;2023-12-20T12:30:06;12.82;;;5.15;;
57441;SDS011;43284;47.042;15.498;2023-12-20T12:32:32;7.97;;;4.47;;
57441;SDS011;43284;47.042;15.498;2023-12-20T12:34:58;9.35;;;4.35;;
57441;SDS011;43284;47.042;15.498;2023-12-20T12:37:23;9.77;;;4.57;;
57441;SDS011;43284;47.042;15.498;2023-12-20T12:39:49;9.20;;;4.30;;
57441;SDS011;43284;47.042;15.498;2023-12-20T12:42:15;10.82;;;4.18;;
57441;SDS011;43284;47.042;15.498;2023-12-20T12:44:40;7.63;;;4.60;;
57441;SDS011;43284;47.042;15.498;2023-12-20T12:47:06;11.75;;;4.38;;
57441;SDS011;43284;47.042;15.498;2023-12-20T12:49:32;10.27;;;4.07;;
57441;SDS011;43284;47.042;15.498;2023-12-20T12:51:57;10.85;;;4.60;;
57441;SDS011;43284;47.042;15.498;2023-12-20T12:54:23;9.50;;;4.28;;
57441;SDS011;43284;47.042;15.498;2023-12-20T12:56:49;11.18;;;4.30;;
57441;SDS011;43284;47.042;15.498;2023-12-20T12:59:18;10.68;;;4.32;;
57441;SDS011;43284;47.042;15.498;2023-12-20T13:01:44;11.50;;;4.22;;
57441;SDS011;43284;47.042;15.498;2023-12-20T13:04:09;11.00;;;3.63;;
57441;SDS011;43284;47.042;15.498;2023-12-20T13:06:38;8.20;;;3.13;;
57441;SDS011;43284;47.042;15.498;2023-12-20T13:09:04;11.60;;;4.05;;
57441;SDS011;43284;47.042;15.498;2023-12-20T13:11:30;8.60;;;4.13;;
57441;SDS011;43284;47.042;15.498;2023-12-20T13:13:56;7.20;;;3.75;;
57441;SDS011;43284;47.042;15.498;2023-12-20T13:16:26;9.15;;;4.25;;
57441;SDS011;43284;47.042;15.498;2023-12-20T13:18:51;8.15;;;3.60;;
57441;SDS011;43284;47.042;15.498;2023-12-20T13:21:21;14.05;;;4.57;;
57441;SDS011;43284;47.042;15.498;2023-12-20T13:23:49;20.60;;;7.43;;
57441;SDS011;43284;47.042;15.498;2023-12-20T13:26:15;14.68;;;7.72;;
57441;SDS011;43284;47.042;15.498;2023-12-20T13:28:40;22.95;;;8.95;;
57441;SDS011;43284;47.042;15.498;2023-12-20T13:31:06;22.48;;;7.78;;
57441;SDS011;43284;47.042;15.498;2023-12-20T13:33:31;22.63;;;6.60;;
57441;SDS011;43284;47.042;15.498;2023-12-20T13:35:57;25.88;;;8.40;;
57441;SDS011;43284;47.042;15.498;2023-12-20T13:38:23;19.80;;;8.15;;
57441;SDS011;43284;47.042;15.498;2023-12-20T13:40:49;18.02;;;6.90;;
57441;SDS011;43284;47.042;15.498;2023-12-20T13:43:14;19.08;;;8.82;;
57441;SDS011;43284;47.042;15.498;2023-12-20T13:45:41;24.98;;;9.43;;
57441;SDS011;43284;47.042;15.498;2023-12-20T13:48:07;23.05;;;9.52;;
57441;SDS011;43284;47.042;15.498;2023-12-20T13:50:32;24.48;;;9.02;;
57441;SDS011;43284;47.042;15.498;2023-12-20T13:52:58;18.98;;;7.88;;
57441;SDS011;43284;47.042;15.498;2023-12-20T13:55:25;17.88;;;7.60;;
57441;SDS011;43284;47.042;15.498;2023-12-20T13:57:52;15.48;;;7.18;;
57441;SDS011;43284;47.042;15.498;2023-12-20T14:00:18;15.35;;;6.65;;
57441;SDS011;43284;47.042;15.498;2023-12-20T14:02:43;15.35;;;7.35;;
57441;SDS011;43284;47.042;15.498;2023-12-20T14:05:09;15.68;;;5.70;;
57441;SDS011;43284;47.042;15.498;2023-12-20T14:07:35;14.38;;;5.28;;
57441;SDS011;43284;47.042;15.498;2023-12-20T14:10:01;15.20;;;5.07;;
57441;SDS011;43284;47.042;15.498;2023-12-20T14:12:27;10.13;;;4.88;;
57441;SDS011;43284;47.042;15.498;2023-12-20T14:14:57;13.73;;;6.22;;
57441;SDS011;43284;47.042;15.498;2023-12-20T14:17:22;15.02;;;6.82;;
57441;SDS011;43284;47.042;15.498;2023-12-20T14:19:48;19.10;;;7.35;;
57441;SDS011;43284;47.042;15.498;2023-12-20T14:22:13;20.45;;;7.85;;
57441;SDS011;43284;47.042;15.498;2023-12-20T14:24:42;9.07;;;4.28;;
57441;SDS011;43284;47.042;15.498;2023-12-20T14:27:07;14.00;;;4.93;;
57441;SDS011;43284;47.042;15.498;2023-12-20T14:29:34;8.85;;;4.35;;
57441;SDS011;43284;47.042;15.498;2023-12-20T14:32:00;9.45;;;4.47;;
57441;SDS011;43284;47.042;15.498;2023-12-20T14:34:28;10.45;;;4.07;;